createdAt,value
2022-08-05T00:00:18.681Z,58.13
2022-08-05T00:02:50.794Z,58.08
2022-08-05T00:06:01.505Z,58.39
2022-08-05T00:08:32.639Z,59.10
2022-08-05T00:11:20.605Z,59.56
2022-08-05T00:13:57.787Z,60.01
2022-08-05T00:16:36.273Z,60.94
2022-08-05T00:19:11.751Z,61.21
2022-08-05T00:21:42.680Z,61.21
2022-08-05T00:24:11.247Z,61.37
2022-08-05T00:26:51.735Z,60.82
2022-08-05T00:29:25.759Z,61.68
2022-08-05T00:32:12.124Z,62.03
2022-08-05T00:35:04.511Z,62.41
2022-08-05T00:37:51.002Z,62.01
2022-08-05T00:40:28.397Z,61.78
2022-08-05T00:43:02.086Z,61.97
2022-08-05T00:45:38.435Z,62.61
2022-08-05T00:48:27.677Z,62.11
2022-08-05T00:50:58.508Z,62.51
2022-08-05T00:54:01.296Z,62.38
2022-08-05T00:56:14.642Z,63.32
2022-08-05T00:58:45.213Z,63.10
2022-08-05T01:01:13.368Z,63.12
2022-08-05T01:03:40.544Z,63.07
2022-08-05T01:06:14.100Z,63.51
2022-08-05T01:08:44.574Z,64.05
2022-08-05T01:11:37.221Z,64.54
2022-08-05T01:14:33.870Z,63.55
2022-08-05T01:17:07.460Z,64.73
2022-08-05T01:20:00.739Z,64.86
2022-08-05T01:23:14.226Z,65.16
2022-08-05T01:26:26.931Z,65.63
2022-08-05T01:29:30.728Z,65.70
2022-08-05T01:32:03.379Z,65.58
2022-08-05T01:34:59.322Z,65.70
2022-08-05T01:37:51.854Z,67.01
2022-08-05T01:40:29.135Z,67.43
2022-08-05T01:42:59.302Z,67.18
2022-08-05T01:45:28.249Z,66.73
2022-08-05T01:48:03.220Z,67.70
2022-08-05T01:50:40.802Z,67.89
2022-08-05T01:53:54.849Z,67.68
2022-08-05T01:56:11.323Z,67.33
2022-08-05T01:58:44.947Z,67.19
2022-08-05T02:01:15.123Z,67.51
2022-08-05T02:03:53.564Z,67.54
2022-08-05T02:06:37.738Z,66.57
2022-08-05T02:09:06.794Z,67.64
2022-08-05T02:12:03.644Z,68.44
2022-08-05T02:15:01.123Z,68.72
2022-08-05T02:18:32.235Z,68.54
2022-08-05T02:20:27.244Z,68.77
2022-08-05T02:23:01.750Z,68.45
2022-08-05T02:25:33.612Z,68.47
2022-08-05T02:28:29.074Z,69.11
2022-08-05T02:31:04.296Z,68.38
2022-08-05T02:33:38.882Z,67.96
2022-08-05T02:36:19.804Z,66.90
2022-08-05T02:38:53.702Z,67.77
2022-08-05T02:41:28.378Z,68.14
2022-08-05T02:44:02.337Z,67.70
2022-08-05T02:46:36.071Z,68.27
2022-08-05T02:49:21.978Z,68.67
2022-08-05T02:52:03.094Z,69.69
2022-08-05T02:54:35.702Z,72.00
2022-08-05T02:57:09.852Z,73.19
2022-08-05T02:59:56.359Z,74.65
2022-08-05T03:02:29.878Z,73.97
2022-08-05T03:04:59.129Z,75.03
2022-08-05T03:08:01.111Z,75.49
2022-08-05T03:10:24.563Z,73.92
2022-08-05T03:15:23.440Z,72.74
2022-08-05T03:17:55.452Z,72.75
2022-08-05T03:20:24.520Z,72.19
2022-08-05T03:22:57.079Z,70.79
2022-08-05T03:25:33.476Z,71.75
2022-08-05T03:28:14.539Z,72.54
2022-08-05T03:30:49.499Z,72.54
2022-08-05T03:33:18.646Z,72.48
2022-08-05T03:35:48.423Z,72.43
2022-08-05T03:38:17.471Z,72.77
2022-08-05T03:41:00.554Z,73.90
2022-08-05T03:44:08.930Z,74.00
2022-08-05T03:46:26.806Z,74.10
2022-08-05T03:48:58.624Z,73.52
2022-08-05T03:52:48.402Z,73.13
2022-08-05T03:55:50.144Z,74.99
2022-08-05T03:57:41.794Z,75.67
2022-08-05T04:00:15.520Z,75.39
2022-08-05T04:02:58.629Z,72.89
2022-08-05T04:05:35.603Z,74.62
2022-08-05T04:08:30.396Z,72.48
2022-08-05T04:10:56.450Z,70.04
2022-08-05T04:13:26.156Z,70.21
2022-08-05T04:16:14.390Z,71.20
2022-08-05T04:18:42.212Z,70.86
2022-08-05T04:22:05.009Z,70.98
2022-08-05T04:24:06.776Z,70.37
2022-08-05T04:26:36.214Z,69.09
2022-08-05T04:29:07.469Z,68.95
2022-08-05T04:31:38.396Z,68.19
2022-08-05T04:34:31.307Z,68.36
2022-08-05T04:36:53.448Z,67.97
2022-08-05T04:39:21.041Z,67.94
2022-08-05T04:41:51.025Z,67.87
2022-08-05T04:44:29.385Z,67.76
2022-08-05T04:46:59.210Z,68.48
2022-08-05T04:49:38.722Z,69.09
2022-08-05T04:52:15.276Z,67.70
2022-08-05T04:54:42.538Z,68.18
2022-08-05T04:57:09.508Z,67.60
2022-08-05T04:59:39.339Z,67.46
2022-08-05T05:02:37.314Z,67.54
2022-08-05T05:05:02.202Z,68.12
2022-08-05T05:07:32.409Z,69.58
2022-08-05T05:10:04.150Z,68.93
2022-08-05T05:12:31.345Z,66.83
2022-08-05T05:14:58.533Z,66.98
2022-08-05T05:17:56.929Z,66.44
2022-08-05T05:20:14.110Z,65.37
2022-08-05T05:22:43.960Z,65.40
2022-08-05T05:25:16.374Z,66.02
2022-08-05T05:27:53.526Z,64.48
2022-08-05T05:30:31.413Z,64.24
2022-08-05T05:33:08.977Z,64.78
2022-08-05T05:35:45.131Z,64.75
2022-08-05T05:38:13.336Z,65.09
2022-08-05T05:40:49.910Z,63.46
2022-08-05T05:43:27.527Z,64.93
2022-08-05T05:46:13.808Z,66.68
2022-08-05T05:48:44.284Z,66.58
2022-08-05T05:51:15.010Z,64.96
2022-08-05T05:53:54.102Z,64.73
2022-08-05T05:56:33.004Z,66.42
2022-08-05T05:59:08.037Z,67.16
2022-08-05T06:01:40.734Z,67.67
2022-08-05T06:04:24.444Z,68.39
2022-08-05T06:06:51.687Z,69.12
2022-08-05T06:09:25.420Z,68.35
2022-08-05T06:12:06.444Z,67.96
2022-08-05T06:14:36.913Z,68.15
2022-08-05T06:17:24.319Z,67.01
2022-08-05T06:19:56.554Z,65.55
2022-08-05T06:22:34.794Z,63.60
2022-08-05T06:25:25.157Z,63.77
2022-08-05T06:28:12.210Z,64.36
2022-08-05T06:30:42.011Z,63.77
2022-08-05T06:33:10.887Z,62.16
2022-08-05T06:36:07.850Z,61.42
2022-08-05T06:38:36.824Z,59.64
2022-08-05T06:41:07.919Z,60.24
2022-08-05T06:43:58.622Z,59.21
2022-08-05T06:46:30.382Z,59.89
2022-08-05T06:48:59.714Z,59.11
2022-08-05T06:51:30.910Z,58.45
2022-08-05T06:54:03.915Z,57.44
2022-08-05T06:56:34.671Z,56.89
2022-08-05T06:59:03.833Z,58.00
2022-08-05T07:01:35.776Z,58.19
2022-08-05T07:04:04.055Z,59.29
2022-08-05T07:06:32.188Z,59.12
2022-08-05T07:09:04.221Z,59.27
2022-08-05T07:11:37.034Z,58.23
2022-08-05T07:14:28.912Z,59.21
2022-08-05T07:18:01.400Z,59.65
2022-08-05T07:20:32.478Z,58.58
2022-08-05T07:22:37.515Z,59.13
2022-08-05T07:25:22.493Z,59.74
2022-08-05T07:27:59.785Z,58.27
2022-08-05T07:30:34.022Z,57.80
2022-08-05T07:33:16.435Z,56.22
2022-08-05T07:36:05.229Z,56.94
2022-08-05T07:38:42.602Z,57.14
2022-08-05T07:42:08.866Z,56.06
2022-08-05T07:44:05.838Z,57.26
2022-08-05T07:46:41.654Z,56.07
2022-08-05T07:49:15.452Z,56.55
2022-08-05T07:51:53.405Z,57.40
2022-08-05T07:54:31.412Z,57.81
2022-08-05T07:57:18.147Z,58.02
2022-08-05T07:59:52.151Z,58.47
2022-08-05T08:02:31.025Z,59.05
2022-08-05T08:05:13.506Z,59.60
2022-08-05T08:08:00.053Z,59.03
2022-08-05T08:10:29.401Z,57.89
2022-08-05T08:12:58.591Z,58.12
2022-08-05T08:16:33.619Z,58.93
2022-08-05T08:18:14.167Z,57.26
2022-08-05T08:21:00.642Z,57.48
2022-08-05T08:24:01.104Z,58.50
2022-08-05T08:26:15.755Z,59.57
2022-08-05T08:28:59.543Z,58.99
2022-08-05T08:31:29.192Z,58.36
2022-08-05T08:33:59.940Z,58.70
2022-08-05T08:36:38.495Z,58.91
2022-08-05T08:39:15.253Z,58.09
2022-08-05T08:41:50.921Z,58.90
2022-08-05T08:45:24.100Z,59.82
2022-08-05T08:47:22.209Z,55.68
2022-08-05T08:50:23.316Z,55.52
2022-08-05T08:52:54.553Z,55.26
2022-08-05T08:56:03.002Z,55.01
2022-08-05T08:58:12.825Z,56.24
2022-08-05T09:00:42.369Z,55.49
2022-08-05T09:03:16.103Z,55.56
2022-08-05T09:06:07.613Z,56.03
2022-08-05T09:08:34.772Z,56.16
2022-08-05T09:11:01.854Z,56.24
2022-08-05T09:13:31.796Z,55.61
2022-08-05T09:16:17.024Z,55.84
2022-08-05T09:18:44.462Z,55.11
2022-08-05T09:21:20.494Z,54.96
2022-08-05T09:24:08.749Z,54.90
2022-08-05T09:26:37.423Z,53.98
2022-08-05T09:29:09.132Z,53.86
2022-08-05T09:32:40.147Z,53.30
2022-08-05T09:34:23.341Z,52.38
2022-08-05T09:36:55.280Z,52.43
2022-08-05T09:39:39.275Z,51.96
2022-08-05T09:42:20.224Z,52.55
2022-08-05T09:44:56.470Z,52.67
2022-08-05T09:47:48.096Z,51.36
2022-08-05T09:50:17.932Z,51.13
2022-08-05T09:53:01.420Z,51.22
2022-08-05T09:55:57.383Z,51.06
2022-08-05T09:58:24.688Z,50.96
2022-08-05T10:01:14.774Z,51.26
2022-08-05T10:04:10.497Z,50.65
2022-08-05T10:06:40.666Z,51.05
2022-08-05T10:09:27.535Z,50.42
2022-08-05T10:12:18.721Z,52.10
2022-08-05T10:15:20.428Z,49.96
2022-08-05T10:18:16.790Z,49.93
2022-08-05T10:20:52.660Z,48.62
2022-08-05T10:23:55.802Z,47.68
2022-08-05T10:26:15.057Z,48.49
2022-08-05T10:28:47.195Z,49.25
2022-08-05T10:32:47.741Z,48.41
2022-08-05T10:34:07.174Z,49.44
2022-08-05T10:36:40.932Z,48.85
2022-08-05T10:39:25.285Z,49.21
2022-08-05T10:42:33.582Z,49.77
2022-08-05T10:45:15.984Z,48.60
2022-08-05T10:48:30.340Z,51.94
2022-08-05T10:51:22.375Z,50.24
2022-08-05T10:54:01.042Z,50.97
2022-08-05T10:56:49.509Z,51.11
2022-08-05T11:00:02.939Z,51.64
2022-08-05T11:02:34.602Z,48.92
2022-08-05T11:05:09.436Z,49.97
2022-08-05T11:08:34.339Z,49.34
2022-08-05T11:11:44.736Z,49.43
2022-08-05T11:17:58.034Z,52.37
2022-08-05T11:20:39.240Z,50.73
2022-08-05T11:24:03.182Z,49.65
2022-08-05T11:26:28.281Z,51.24
2022-08-05T11:28:56.805Z,49.29
2022-08-05T11:31:57.147Z,49.22
2022-08-05T11:34:50.985Z,50.17
2022-08-05T11:38:36.715Z,48.85
2022-08-05T11:41:13.854Z,48.43
2022-08-05T11:44:10.669Z,48.29
2022-08-05T11:47:10.296Z,47.37
2022-08-05T11:49:34.585Z,49.44
2022-08-05T11:52:11.431Z,49.97
2022-08-05T11:54:41.288Z,51.96
2022-08-05T11:57:25.467Z,49.96
2022-08-05T11:59:54.667Z,51.54
2022-08-05T12:02:31.765Z,51.08
2022-08-05T12:05:07.010Z,49.46
2022-08-05T12:08:07.374Z,48.55
2022-08-05T12:10:38.517Z,50.18
2022-08-05T12:13:28.020Z,50.98
2022-08-05T12:16:14.484Z,51.29
2022-08-05T12:18:48.707Z,51.35
2022-08-05T12:21:23.655Z,52.28
2022-08-05T12:24:04.570Z,52.79
2022-08-05T12:26:36.162Z,53.24
2022-08-05T12:29:15.837Z,53.60
2022-08-05T12:31:54.316Z,54.01
2022-08-05T12:34:32.291Z,54.18
2022-08-05T12:37:06.510Z,53.85
2022-08-05T12:39:37.476Z,54.26
2022-08-05T12:42:17.546Z,53.81
2022-08-05T12:44:46.037Z,53.65
2022-08-05T12:47:30.699Z,54.68
2022-08-05T12:50:02.338Z,54.24
2022-08-05T12:52:39.579Z,51.85
2022-08-05T12:55:28.543Z,54.83
2022-08-05T12:58:48.202Z,52.95
2022-08-05T13:02:03.860Z,53.62
2022-08-05T13:03:42.055Z,54.63
2022-08-05T13:06:19.877Z,55.23
2022-08-05T13:08:52.010Z,56.03
2022-08-05T13:11:25.352Z,56.60
2022-08-05T13:14:24.717Z,56.57
2022-08-05T13:17:16.629Z,57.32
2022-08-05T13:20:17.259Z,56.87
2022-08-05T13:22:52.367Z,55.68
2022-08-05T13:25:22.139Z,55.25
2022-08-05T13:28:08.056Z,54.69
2022-08-05T13:30:39.173Z,54.73
2022-08-05T13:33:06.330Z,55.64
2022-08-05T13:35:47.088Z,55.80
2022-08-05T13:38:31.192Z,55.98
2022-08-05T13:41:03.941Z,56.67
2022-08-05T13:43:44.683Z,58.54
2022-08-05T13:46:14.397Z,58.07
2022-08-05T13:49:00.240Z,57.81
2022-08-05T13:51:36.548Z,54.89
2022-08-05T13:54:12.925Z,57.79
2022-08-05T13:56:45.173Z,58.71
2022-08-05T13:59:23.828Z,57.56
2022-08-05T14:01:57.784Z,58.31
2022-08-05T14:04:51.760Z,59.48
2022-08-05T14:07:59.576Z,58.78
2022-08-05T14:10:30.826Z,58.54
2022-08-05T14:12:59.760Z,57.87
2022-08-05T14:16:08.477Z,57.40
2022-08-05T14:18:18.305Z,58.32
2022-08-05T14:20:54.461Z,58.91
2022-08-05T14:23:25.939Z,56.98
2022-08-05T14:25:58.763Z,58.09
2022-08-05T14:28:30.333Z,58.76
2022-08-05T14:30:59.450Z,58.55
2022-08-05T14:33:27.876Z,59.25
2022-08-05T14:36:14.876Z,58.44
2022-08-05T14:38:42.242Z,57.88
2022-08-05T14:41:11.735Z,58.31
2022-08-05T14:43:58.810Z,58.40
2022-08-05T14:46:30.698Z,58.47
2022-08-05T14:49:06.315Z,57.16
2022-08-05T14:51:37.636Z,57.20
2022-08-05T14:54:28.291Z,57.25
2022-08-05T14:56:54.929Z,57.60
2022-08-05T14:59:22.548Z,58.84
2022-08-05T15:01:50.419Z,58.61
2022-08-05T15:04:20.602Z,59.18
2022-08-05T15:06:49.668Z,58.91
2022-08-05T15:09:52.223Z,58.02
2022-08-05T15:12:11.435Z,59.14
2022-08-05T15:14:49.625Z,59.85
2022-08-05T15:17:46.502Z,60.19
2022-08-05T15:20:18.919Z,60.21
2022-08-05T15:22:53.971Z,61.45
2022-08-05T15:25:51.185Z,61.29
2022-08-05T15:28:14.480Z,61.56
2022-08-05T15:30:43.788Z,61.07
2022-08-05T15:33:56.853Z,61.83
2022-08-05T15:36:03.422Z,61.83
2022-08-05T15:38:36.562Z,62.52
2022-08-05T15:41:23.102Z,61.43
2022-08-05T15:43:55.005Z,60.52
2022-08-05T15:46:24.165Z,61.40
2022-08-05T15:48:58.579Z,62.29
2022-08-05T15:52:09.996Z,62.60
2022-08-05T15:54:16.671Z,63.26
2022-08-05T15:56:43.758Z,70.08
2022-08-05T15:59:19.830Z,72.46
2022-08-05T16:01:53.094Z,73.51
2022-08-05T16:04:25.383Z,74.14
2022-08-05T16:06:55.516Z,74.00
2022-08-05T16:09:24.802Z,73.64
2022-08-05T16:11:54.040Z,73.26
2022-08-05T16:14:23.268Z,74.33
2022-08-05T16:16:50.840Z,73.78
2022-08-05T16:19:25.538Z,74.53
2022-08-05T16:22:07.301Z,74.37
2022-08-05T16:24:51.728Z,73.21
2022-08-05T16:27:19.647Z,71.85
2022-08-05T16:30:08.456Z,70.30
2022-08-05T16:32:52.092Z,68.67
2022-08-05T16:35:19.892Z,68.69
2022-08-05T16:38:03.118Z,68.72
2022-08-05T16:40:48.086Z,68.72
2022-08-05T16:43:27.555Z,68.45
2022-08-05T16:46:05.101Z,68.65
2022-08-05T16:48:38.321Z,69.25
2022-08-05T16:51:08.946Z,69.38
2022-08-05T16:54:05.650Z,68.16
2022-08-05T16:56:30.543Z,68.57
2022-08-05T16:59:00.872Z,68.18
2022-08-05T17:01:52.910Z,68.71
2022-08-05T17:04:27.623Z,68.19
2022-08-05T17:07:03.625Z,68.15
2022-08-05T17:09:58.210Z,68.66
2022-08-05T17:12:50.522Z,67.72
2022-08-05T17:15:19.204Z,67.05
2022-08-05T17:17:54.810Z,67.16
2022-08-05T17:20:22.530Z,67.63
2022-08-05T17:22:55.615Z,67.87
2022-08-05T17:25:39.279Z,67.81
2022-08-05T17:28:06.818Z,69.28
2022-08-05T17:30:50.648Z,69.27
2022-08-05T17:33:19.968Z,69.34
2022-08-05T17:36:07.465Z,69.73
2022-08-05T17:38:34.369Z,70.97
2022-08-05T17:41:02.022Z,70.89
2022-08-05T17:43:47.257Z,70.52
2022-08-05T17:46:18.362Z,69.81
2022-08-05T17:48:47.706Z,70.09
2022-08-05T17:51:21.699Z,69.48
2022-08-05T17:53:54.464Z,70.09
2022-08-05T17:56:22.713Z,69.40
2022-08-05T17:58:51.236Z,69.70
2022-08-05T18:01:19.640Z,70.51
2022-08-05T18:03:58.677Z,71.12
2022-08-05T18:06:31.705Z,71.01
2022-08-05T18:08:59.547Z,71.01
2022-08-05T18:11:33.261Z,71.36
2022-08-05T18:14:04.297Z,71.91
2022-08-05T18:16:35.716Z,72.25
2022-08-05T18:19:22.654Z,72.92
2022-08-05T18:22:08.369Z,72.99
2022-08-05T18:24:37.836Z,73.44
2022-08-05T18:27:12.490Z,73.76
2022-08-05T18:29:48.216Z,74.88
2022-08-05T18:32:21.008Z,74.37
2022-08-05T18:34:56.219Z,74.43
2022-08-05T18:37:34.696Z,74.74
2022-08-05T18:41:54.236Z,75.37
2022-08-05T18:43:00.324Z,74.82
2022-08-05T18:45:41.861Z,74.71
2022-08-05T18:48:11.054Z,75.43
2022-08-05T18:50:56.692Z,75.15
2022-08-05T18:53:29.521Z,75.38
2022-08-05T18:56:01.905Z,75.31
2022-08-05T18:58:39.867Z,74.55
2022-08-05T19:01:10.192Z,74.55
2022-08-05T19:03:55.513Z,74.47
2022-08-05T19:06:34.177Z,74.30
2022-08-05T19:09:10.819Z,74.37
2022-08-05T19:12:01.063Z,73.62
2022-08-05T19:14:53.341Z,73.24
2022-08-05T19:17:12.924Z,73.82
2022-08-05T19:19:46.330Z,73.64
2022-08-05T19:22:16.915Z,72.94
2022-08-05T19:24:56.549Z,72.68
2022-08-05T19:27:30.210Z,72.62
2022-08-05T19:29:58.309Z,72.34
2022-08-05T19:32:26.199Z,71.82
2022-08-05T19:34:55.955Z,70.73
2022-08-05T19:37:29.843Z,71.03
2022-08-05T19:40:15.098Z,70.77
2022-08-05T19:42:42.382Z,70.68
2022-08-05T19:45:30.469Z,69.89
2022-08-05T19:48:01.067Z,71.24
2022-08-05T19:50:28.723Z,69.73
2022-08-05T19:52:56.805Z,68.88
2022-08-05T19:56:14.308Z,68.66
2022-08-05T19:58:28.427Z,68.72
2022-08-05T20:00:56.908Z,68.64
2022-08-05T20:03:26.125Z,68.43
2022-08-05T20:05:56.646Z,69.16
2022-08-05T20:08:24.573Z,68.90
2022-08-05T20:10:53.164Z,69.42
2022-08-05T20:13:29.841Z,68.88
2022-08-05T20:15:57.731Z,69.36
2022-08-05T20:18:33.120Z,68.76
2022-08-05T20:21:04.702Z,68.77
2022-08-05T20:23:39.357Z,69.25
2022-08-05T20:26:17.257Z,70.04
2022-08-05T20:28:50.482Z,69.55
2022-08-05T20:31:21.971Z,70.12
2022-08-05T20:33:56.352Z,70.17
2022-08-05T20:36:24.335Z,70.53
2022-08-05T20:38:53.717Z,70.54
2022-08-05T20:41:24.235Z,71.15
2022-08-05T20:44:00.428Z,71.27
2022-08-05T20:46:33.579Z,70.98
2022-08-05T20:49:00.570Z,70.99
2022-08-05T20:51:29.763Z,71.41
2022-08-05T20:54:01.317Z,71.54
2022-08-05T20:56:32.946Z,71.56
2022-08-05T20:59:19.253Z,71.45
2022-08-05T21:01:57.364Z,72.15
2022-08-05T21:04:26.893Z,73.25
2022-08-05T21:06:54.840Z,73.77
2022-08-05T21:09:22.985Z,73.31
2022-08-05T21:12:07.229Z,73.41
2022-08-05T21:14:36.448Z,73.61
2022-08-05T21:17:05.416Z,72.66
2022-08-05T21:19:46.898Z,73.03
2022-08-05T21:22:17.675Z,72.61
2022-08-05T21:24:51.668Z,72.46
2022-08-05T21:27:24.771Z,71.32
2022-08-05T21:29:55.269Z,71.24
2022-08-05T21:32:27.637Z,70.49
2022-08-05T21:35:16.829Z,70.32
2022-08-05T21:37:47.207Z,67.92
2022-08-05T21:40:16.644Z,68.11
2022-08-05T21:42:45.628Z,68.32
2022-08-05T21:45:24.013Z,68.67
2022-08-05T21:47:56.055Z,68.52
2022-08-05T21:50:26.506Z,68.52
2022-08-05T21:52:58.957Z,69.13
2022-08-05T21:56:00.865Z,68.50
2022-08-05T21:58:30.834Z,69.21
2022-08-05T22:01:00.423Z,69.11
2022-08-05T22:03:48.924Z,68.88
2022-08-05T22:06:22.314Z,69.70
2022-08-05T22:08:52.136Z,69.11
2022-08-05T22:11:34.772Z,69.30
2022-08-05T22:14:37.337Z,70.25
2022-08-05T22:16:56.994Z,70.66
2022-08-05T22:20:01.592Z,70.73
2022-08-05T22:22:15.912Z,70.75
2022-08-05T22:25:01.900Z,71.00
2022-08-05T22:28:10.622Z,70.54
2022-08-05T22:30:34.910Z,70.92
2022-08-05T22:33:15.591Z,71.30
2022-08-05T22:35:49.236Z,71.31
2022-08-05T22:38:19.729Z,70.96
2022-08-05T22:40:49.977Z,70.70
2022-08-05T22:43:36.689Z,70.68
2022-08-05T22:46:13.060Z,71.90
2022-08-05T22:48:48.155Z,71.71
2022-08-05T22:51:16.110Z,71.55
2022-08-05T22:53:51.057Z,71.46
2022-08-05T22:56:30.449Z,71.39
2022-08-05T22:59:02.914Z,72.10
2022-08-05T23:02:04.480Z,72.63
2022-08-05T23:04:18.900Z,72.37
2022-08-05T23:06:46.168Z,72.18
2022-08-05T23:09:52.744Z,72.26
2022-08-05T23:12:02.406Z,72.69
2022-08-05T23:14:32.057Z,73.02
2022-08-05T23:17:24.347Z,72.28
2022-08-05T23:20:02.471Z,72.45
2022-08-05T23:22:30.865Z,72.63
2022-08-05T23:24:58.195Z,72.78
2022-08-05T23:27:31.362Z,72.93
2022-08-05T23:30:10.678Z,72.25
2022-08-05T23:32:37.974Z,72.42
2022-08-05T23:35:12.627Z,72.93
2022-08-05T23:37:39.659Z,73.20
2022-08-05T23:40:09.593Z,73.39
2022-08-05T23:42:38.872Z,74.05
2022-08-05T23:45:14.438Z,73.86
2022-08-05T23:47:47.746Z,74.41
2022-08-05T23:50:17.125Z,75.62
2022-08-05T23:52:49.758Z,74.83
2022-08-05T23:55:19.120Z,74.16
2022-08-05T23:57:48.953Z,75.08
